sensor_id;sensor_type;location;lat;lon;timestamp;pressure;altitude;pressure_sealevel;temperature;humidity
46846;BME280;33947;46.804;134.252;2022-08-05T00:01:22;99777.06;;;25.62;86.49
46846;BME280;33947;46.804;134.252;2022-08-05T00:04:30;99750.66;;;25.36;87.00
46846;BME280;33947;46.804;134.252;2022-08-05T00:07:35;99791.34;;;25.27;88.13
46846;BME280;33947;46.804;134.252;2022-08-05T00:11:01;99796.66;;;25.29;87.53
46846;BME280;33947;46.804;134.252;2022-08-05T00:14:06;99787.63;;;25.10;88.52
46846;BME280;33947;46.804;134.252;2022-08-05T00:17:19;99790.50;;;25.09;88.48
46846;BME280;33947;46.804;134.252;2022-08-05T00:20:23;99799.38;;;25.11;89.01
46846;BME280;33947;46.804;134.252;2022-08-05T00:23:31;99788.81;;;25.08;89.38
46846;BME280;33947;46.804;134.252;2022-08-05T00:26:49;99794.00;;;25.01;89.65
46846;BME280;33947;46.804;134.252;2022-08-05T00:29:55;99777.75;;;24.91;90.05
46846;BME280;33947;46.804;134.252;2022-08-05T00:33:02;99773.41;;;24.98;89.95
46846;BME280;33947;46.804;134.252;2022-08-05T00:36:17;99774.66;;;25.22;89.57
46846;BME280;33947;46.804;134.252;2022-08-05T00:39:41;99756.91;;;25.46;87.57
46846;BME280;33947;46.804;134.252;2022-08-05T00:43:01;99755.31;;;25.62;87.06
46846;BME280;33947;46.804;134.252;2022-08-05T00:46:09;99742.91;;;25.85;85.81
46846;BME280;33947;46.804;134.252;2022-08-05T00:49:16;99746.50;;;25.94;85.95
46846;BME280;33947;46.804;134.252;2022-08-05T00:52:23;99743.50;;;26.06;85.51
46846;BME280;33947;46.804;134.252;2022-08-05T00:55:31;99725.91;;;25.92;85.88
46846;BME280;33947;46.804;134.252;2022-08-05T00:58:45;99730.78;;;26.41;84.63
46846;BME280;33947;46.804;134.252;2022-08-05T01:01:49;99720.81;;;26.75;83.12
46846;BME280;33947;46.804;134.252;2022-08-05T01:04:54;99718.50;;;26.96;82.00
46846;BME280;33947;46.804;134.252;2022-08-05T01:07:58;99723.63;;;27.41;81.14
46846;BME280;33947;46.804;134.252;2022-08-05T01:11:29;99713.81;;;27.96;78.90
46846;BME280;33947;46.804;134.252;2022-08-05T01:14:48;99711.94;;;28.05;78.70
46846;BME280;33947;46.804;134.252;2022-08-05T01:18:02;99684.59;;;28.13;79.16
46846;BME280;33947;46.804;134.252;2022-08-05T01:21:15;99708.78;;;30.33;72.61
46846;BME280;33947;46.804;134.252;2022-08-05T01:31:51;99641.72;;;31.73;64.81
46846;BME280;33947;46.804;134.252;2022-08-05T01:35:00;99654.47;;;31.81;64.67
46846;BME280;33947;46.804;134.252;2022-08-05T01:38:12;99671.72;;;31.17;64.80
46846;BME280;33947;46.804;134.252;2022-08-05T01:41:34;99661.47;;;30.61;67.17
46846;BME280;33947;46.804;134.252;2022-08-05T01:44:48;99594.38;;;29.38;70.58
46846;BME280;33947;46.804;134.252;2022-08-05T01:47:59;99657.63;;;29.58;70.26
46846;BME280;33947;46.804;134.252;2022-08-05T01:51:13;99659.00;;;29.16;71.32
46846;BME280;33947;46.804;134.252;2022-08-05T01:54:19;99657.28;;;29.00;71.34
46846;BME280;33947;46.804;134.252;2022-08-05T01:57:33;99655.56;;;29.22;70.04
46846;BME280;33947;46.804;134.252;2022-08-05T02:01:00;99647.41;;;29.14;71.21
46846;BME280;33947;46.804;134.252;2022-08-05T02:04:07;99652.75;;;29.30;70.76
46846;BME280;33947;46.804;134.252;2022-08-05T02:07:13;99584.25;;;29.24;70.38
46846;BME280;33947;46.804;134.252;2022-08-05T02:10:30;99630.81;;;29.54;69.53
46846;BME280;33947;46.804;134.252;2022-08-05T02:17:06;99632.91;;;29.13;69.27
46846;BME280;33947;46.804;134.252;2022-08-05T02:24:07;99612.75;;;28.68;71.41
46846;BME280;33947;46.804;134.252;2022-08-05T02:27:14;99599.38;;;28.96;70.27
46846;BME280;33947;46.804;134.252;2022-08-05T02:30:44;99594.25;;;29.31;68.82
46846;BME280;33947;46.804;134.252;2022-08-05T02:34:01;99590.97;;;29.36;68.53
46846;BME280;33947;46.804;134.252;2022-08-05T02:37:08;99569.81;;;29.30;67.71
46846;BME280;33947;46.804;134.252;2022-08-05T02:40:15;99573.88;;;29.19;68.38
46846;BME280;33947;46.804;134.252;2022-08-05T02:43:20;99561.88;;;28.90;69.87
46846;BME280;33947;46.804;134.252;2022-08-05T02:46:27;99513.19;;;28.47;68.76
46846;BME280;33947;46.804;134.252;2022-08-05T02:49:37;99533.53;;;28.44;70.20
46846;BME280;33947;46.804;134.252;2022-08-05T02:52:45;99563.75;;;28.66;70.06
46846;BME280;33947;46.804;134.252;2022-08-05T02:55:51;99473.19;;;28.08;70.91
46846;BME280;33947;46.804;134.252;2022-08-05T02:59:04;99553.97;;;28.72;69.60
46846;BME280;33947;46.804;134.252;2022-08-05T03:02:11;99551.03;;;28.82;69.61
46846;BME280;33947;46.804;134.252;2022-08-05T03:05:17;99533.44;;;28.76;70.39
46846;BME280;33947;46.804;134.252;2022-08-05T03:08:43;99530.75;;;28.91;71.08
46846;BME280;33947;46.804;134.252;2022-08-05T03:11:54;99530.66;;;28.99;70.15
46846;BME280;33947;46.804;134.252;2022-08-05T03:15:00;99527.56;;;29.17;70.07
46846;BME280;33947;46.804;134.252;2022-08-05T03:18:09;99526.16;;;29.22;68.68
46846;BME280;33947;46.804;134.252;2022-08-05T03:21:14;99519.19;;;29.04;69.71
46846;BME280;33947;46.804;134.252;2022-08-05T03:24:19;99502.13;;;29.02;70.32
46846;BME280;33947;46.804;134.252;2022-08-05T03:27:33;99488.44;;;29.02;69.74
46846;BME280;33947;46.804;134.252;2022-08-05T03:30:59;99494.84;;;29.09;70.07
46846;BME280;33947;46.804;134.252;2022-08-05T03:34:04;99475.13;;;29.14;69.67
46846;BME280;33947;46.804;134.252;2022-08-05T03:37:12;99472.41;;;29.14;70.45
46846;BME280;33947;46.804;134.252;2022-08-05T03:40:17;99456.75;;;29.08;69.92
46846;BME280;33947;46.804;134.252;2022-08-05T03:43:33;99454.69;;;29.10;69.40
46846;BME280;33947;46.804;134.252;2022-08-05T03:46:58;99463.25;;;29.07;68.64
46846;BME280;33947;46.804;134.252;2022-08-05T03:50:06;99452.06;;;29.01;69.71
46846;BME280;33947;46.804;134.252;2022-08-05T03:53:13;99464.88;;;29.01;69.52
46846;BME280;33947;46.804;134.252;2022-08-05T03:56:44;99418.75;;;28.68;70.31
46846;BME280;33947;46.804;134.252;2022-08-05T03:59:56;99450.72;;;28.97;69.89
46846;BME280;33947;46.804;134.252;2022-08-05T04:03:14;99445.63;;;28.79;70.58
46846;BME280;33947;46.804;134.252;2022-08-05T04:06:33;99459.31;;;28.94;70.67
46846;BME280;33947;46.804;134.252;2022-08-05T04:09:39;99450.91;;;28.96;70.20
46846;BME280;33947;46.804;134.252;2022-08-05T04:12:56;99439.47;;;28.77;70.96
46846;BME280;33947;46.804;134.252;2022-08-05T04:16:01;99443.66;;;28.88;69.19
46846;BME280;33947;46.804;134.252;2022-08-05T04:19:11;99336.16;;;28.12;70.40
46846;BME280;33947;46.804;134.252;2022-08-05T04:22:16;99430.72;;;28.67;70.99
46846;BME280;33947;46.804;134.252;2022-08-05T04:25:23;99426.00;;;28.75;70.00
46846;BME280;33947;46.804;134.252;2022-08-05T04:28:48;99425.06;;;28.68;70.17
46846;BME280;33947;46.804;134.252;2022-08-05T04:31:54;99411.66;;;28.58;70.58
46846;BME280;33947;46.804;134.252;2022-08-05T04:34:59;99410.25;;;28.48;71.17
46846;BME280;33947;46.804;134.252;2022-08-05T04:38:05;99429.56;;;28.46;71.97
46846;BME280;33947;46.804;134.252;2022-08-05T04:41:11;99423.50;;;28.36;72.93
46846;BME280;33947;46.804;134.252;2022-08-05T04:44:16;99422.66;;;28.35;72.02
46846;BME280;33947;46.804;134.252;2022-08-05T04:47:31;99425.00;;;28.23;72.44
46846;BME280;33947;46.804;134.252;2022-08-05T04:50:46;99316.22;;;27.50;72.58
46846;BME280;33947;46.804;134.252;2022-08-05T04:54:11;99409.53;;;27.92;73.62
46846;BME280;33947;46.804;134.252;2022-08-05T04:57:18;99395.88;;;27.92;73.28
46846;BME280;33947;46.804;134.252;2022-08-05T05:00:33;99310.75;;;27.50;72.74
46846;BME280;33947;46.804;134.252;2022-08-05T05:03:38;99395.25;;;28.05;72.28
46846;BME280;33947;46.804;134.252;2022-08-05T05:06:44;99386.66;;;27.93;72.68
46846;BME280;33947;46.804;134.252;2022-08-05T05:09:54;99388.75;;;27.83;73.17
46846;BME280;33947;46.804;134.252;2022-08-05T05:13:00;99387.56;;;27.85;73.32
46846;BME280;33947;46.804;134.252;2022-08-05T05:16:07;99374.81;;;27.78;73.60
46846;BME280;33947;46.804;134.252;2022-08-05T05:19:14;99379.44;;;27.77;74.10
46846;BME280;33947;46.804;134.252;2022-08-05T05:22:28;99380.19;;;27.71;74.43
46846;BME280;33947;46.804;134.252;2022-08-05T05:25:33;99374.53;;;27.72;74.29
46846;BME280;33947;46.804;134.252;2022-08-05T05:28:43;99370.75;;;27.73;74.47
46846;BME280;33947;46.804;134.252;2022-08-05T05:31:48;99366.16;;;27.42;75.86
46846;BME280;33947;46.804;134.252;2022-08-05T05:34:53;99340.66;;;27.35;76.03
46846;BME280;33947;46.804;134.252;2022-08-05T05:38:01;99372.97;;;27.55;75.88
46846;BME280;33947;46.804;134.252;2022-08-05T05:41:11;99362.09;;;27.47;76.38
46846;BME280;33947;46.804;134.252;2022-08-05T05:44:20;99363.81;;;27.39;76.92
46846;BME280;33947;46.804;134.252;2022-08-05T05:47:45;99374.72;;;27.39;77.21
46846;BME280;33947;46.804;134.252;2022-08-05T05:51:10;99367.16;;;27.18;77.91
46846;BME280;33947;46.804;134.252;2022-08-05T05:54:18;99354.84;;;27.30;76.90
46846;BME280;33947;46.804;134.252;2022-08-05T05:57:22;99355.88;;;27.29;76.88
46846;BME280;33947;46.804;134.252;2022-08-05T06:00:45;99366.44;;;27.24;78.34
46846;BME280;33947;46.804;134.252;2022-08-05T06:03:51;99365.97;;;27.21;78.39
46846;BME280;33947;46.804;134.252;2022-08-05T06:07:05;99360.22;;;27.07;79.27
46846;BME280;33947;46.804;134.252;2022-08-05T06:10:13;99358.53;;;27.06;79.46
46846;BME280;33947;46.804;134.252;2022-08-05T06:13:20;99368.28;;;27.00;80.29
46846;BME280;33947;46.804;134.252;2022-08-05T06:16:26;99384.81;;;26.99;80.35
46846;BME280;33947;46.804;134.252;2022-08-05T06:19:39;99391.13;;;26.83;81.03
46846;BME280;33947;46.804;134.252;2022-08-05T06:22:58;99399.06;;;26.53;82.85
46846;BME280;33947;46.804;134.252;2022-08-05T06:26:06;99435.69;;;26.17;86.21
46846;BME280;33947;46.804;134.252;2022-08-05T06:29:24;99420.84;;;25.95;87.41
46846;BME280;33947;46.804;134.252;2022-08-05T06:32:49;99422.72;;;25.78;88.39
46846;BME280;33947;46.804;134.252;2022-08-05T06:35:53;99451.38;;;25.55;90.71
46846;BME280;33947;46.804;134.252;2022-08-05T06:39:12;99422.25;;;25.39;90.76
46846;BME280;33947;46.804;134.252;2022-08-05T06:42:16;99436.28;;;25.61;90.75
46846;BME280;33947;46.804;134.252;2022-08-05T06:45:21;99394.53;;;25.36;90.45
46846;BME280;33947;46.804;134.252;2022-08-05T06:48:46;99389.53;;;25.57;86.84
46846;BME280;33947;46.804;134.252;2022-08-05T06:52:01;99388.25;;;25.27;88.48
46846;BME280;33947;46.804;134.252;2022-08-05T06:55:06;99381.41;;;25.14;88.39
46846;BME280;33947;46.804;134.252;2022-08-05T06:58:12;99381.25;;;25.24;88.21
46846;BME280;33947;46.804;134.252;2022-08-05T07:01:36;99353.38;;;25.06;88.64
46846;BME280;33947;46.804;134.252;2022-08-05T07:04:44;99386.91;;;25.31;88.70
46846;BME280;33947;46.804;134.252;2022-08-05T07:07:49;99391.81;;;25.36;88.49
46846;BME280;33947;46.804;134.252;2022-08-05T07:10:55;99375.00;;;25.32;89.67
46846;BME280;33947;46.804;134.252;2022-08-05T07:14:01;99387.06;;;25.29;90.23
46846;BME280;33947;46.804;134.252;2022-08-05T07:17:32;99365.28;;;25.21;90.69
46846;BME280;33947;46.804;134.252;2022-08-05T07:20:56;99376.88;;;25.32;90.33
46846;BME280;33947;46.804;134.252;2022-08-05T07:24:09;99375.34;;;25.29;90.72
46846;BME280;33947;46.804;134.252;2022-08-05T07:27:13;99379.25;;;25.35;90.93
46846;BME280;33947;46.804;134.252;2022-08-05T07:30:18;99388.25;;;25.27;90.77
46846;BME280;33947;46.804;134.252;2022-08-05T07:33:32;99385.88;;;25.24;90.99
46846;BME280;33947;46.804;134.252;2022-08-05T07:36:41;99393.84;;;25.34;90.69
46846;BME280;33947;46.804;134.252;2022-08-05T07:39:46;99389.94;;;25.28;91.66
46846;BME280;33947;46.804;134.252;2022-08-05T07:43:11;99400.81;;;25.20;92.16
46846;BME280;33947;46.804;134.252;2022-08-05T07:46:24;99398.09;;;25.28;91.89
46846;BME280;33947;46.804;134.252;2022-08-05T07:49:30;99373.63;;;25.20;91.49
46846;BME280;33947;46.804;134.252;2022-08-05T07:52:45;99395.41;;;25.36;90.67
46846;BME280;33947;46.804;134.252;2022-08-05T07:55:50;99378.06;;;25.29;89.96
46846;BME280;33947;46.804;134.252;2022-08-05T07:59:15;99394.84;;;25.24;90.81
46846;BME280;33947;46.804;134.252;2022-08-05T08:02:34;99385.00;;;25.23;91.49
46846;BME280;33947;46.804;134.252;2022-08-05T08:05:59;99373.63;;;25.20;91.64
46846;BME280;33947;46.804;134.252;2022-08-05T08:09:04;99381.81;;;25.28;91.36
46846;BME280;33947;46.804;134.252;2022-08-05T08:12:09;99375.84;;;25.24;91.59
46846;BME280;33947;46.804;134.252;2022-08-05T08:15:36;99374.66;;;25.27;92.03
46846;BME280;33947;46.804;134.252;2022-08-05T08:19:01;99373.31;;;25.31;91.57
46846;BME280;33947;46.804;134.252;2022-08-05T08:22:09;99366.19;;;25.38;91.34
46846;BME280;33947;46.804;134.252;2022-08-05T08:25:18;99371.63;;;25.38;90.99
46846;BME280;33947;46.804;134.252;2022-08-05T08:28:29;99374.50;;;25.37;91.17
46846;BME280;33947;46.804;134.252;2022-08-05T08:31:45;99391.66;;;25.37;91.01
46846;BME280;33947;46.804;134.252;2022-08-05T08:34:50;99385.91;;;25.40;91.34
46846;BME280;33947;46.804;134.252;2022-08-05T08:37:59;99395.75;;;25.41;90.85
46846;BME280;33947;46.804;134.252;2022-08-05T08:41:04;99391.81;;;25.27;91.53
46846;BME280;33947;46.804;134.252;2022-08-05T08:44:18;99385.38;;;25.37;91.31
46846;BME280;33947;46.804;134.252;2022-08-05T08:47:45;99380.94;;;25.36;90.87
46846;BME280;33947;46.804;134.252;2022-08-05T08:51:10;99370.75;;;25.29;90.99
46846;BME280;33947;46.804;134.252;2022-08-05T08:54:35;99312.41;;;24.91;90.78
46846;BME280;33947;46.804;134.252;2022-08-05T08:57:46;99376.69;;;25.25;90.84
46846;BME280;33947;46.804;134.252;2022-08-05T09:01:01;99374.13;;;25.23;90.90
46846;BME280;33947;46.804;134.252;2022-08-05T09:04:06;99373.28;;;25.23;90.92
46846;BME280;33947;46.804;134.252;2022-08-05T09:07:12;99384.53;;;25.36;90.11
46846;BME280;33947;46.804;134.252;2022-08-05T09:10:31;99384.84;;;25.25;90.44
46846;BME280;33947;46.804;134.252;2022-08-05T09:13:37;99385.34;;;25.28;90.14
46846;BME280;33947;46.804;134.252;2022-08-05T09:17:07;99381.25;;;25.24;90.42
46846;BME280;33947;46.804;134.252;2022-08-05T09:20:32;99388.06;;;25.28;90.17
46846;BME280;33947;46.804;134.252;2022-08-05T09:23:40;99388.41;;;25.25;90.44
46846;BME280;33947;46.804;134.252;2022-08-05T09:26:55;99398.78;;;25.30;90.22
46846;BME280;33947;46.804;134.252;2022-08-05T09:30:00;99395.72;;;25.25;90.70
46846;BME280;33947;46.804;134.252;2022-08-05T09:33:08;99395.06;;;25.31;90.92
46846;BME280;33947;46.804;134.252;2022-08-05T09:36:19;99380.44;;;25.24;91.04
46846;BME280;33947;46.804;134.252;2022-08-05T09:39:37;99393.34;;;25.22;91.21
46846;BME280;33947;46.804;134.252;2022-08-05T09:42:48;99404.84;;;25.15;91.99
46846;BME280;33947;46.804;134.252;2022-08-05T09:45:56;99403.88;;;25.25;91.25
46846;BME280;33947;46.804;134.252;2022-08-05T09:49:22;99398.91;;;25.12;91.36
46846;BME280;33947;46.804;134.252;2022-08-05T09:52:56;99397.53;;;25.08;91.76
46846;BME280;33947;46.804;134.252;2022-08-05T09:56:03;99400.28;;;25.16;91.11
46846;BME280;33947;46.804;134.252;2022-08-05T09:59:15;99407.88;;;25.12;91.69
46846;BME280;33947;46.804;134.252;2022-08-05T10:02:37;99407.53;;;25.07;91.99
46846;BME280;33947;46.804;134.252;2022-08-05T10:05:44;99405.16;;;25.04;92.29
46846;BME280;33947;46.804;134.252;2022-08-05T10:08:51;99397.31;;;25.01;92.77
46846;BME280;33947;46.804;134.252;2022-08-05T10:12:08;99407.53;;;25.07;93.09
46846;BME280;33947;46.804;134.252;2022-08-05T10:15:36;99409.88;;;25.02;93.76
46846;BME280;33947;46.804;134.252;2022-08-05T10:18:43;99413.78;;;24.99;93.55
46846;BME280;33947;46.804;134.252;2022-08-05T10:21:50;99411.25;;;24.98;94.42
46846;BME280;33947;46.804;134.252;2022-08-05T10:24:55;99424.81;;;24.98;94.67
46846;BME280;33947;46.804;134.252;2022-08-05T10:28:01;99388.72;;;24.79;94.32
46846;BME280;33947;46.804;134.252;2022-08-05T10:31:19;99409.31;;;24.90;94.71
46846;BME280;33947;46.804;134.252;2022-08-05T10:34:44;99414.25;;;24.87;95.18
46846;BME280;33947;46.804;134.252;2022-08-05T10:37:51;99416.63;;;24.90;95.27
46846;BME280;33947;46.804;134.252;2022-08-05T10:41:07;99430.03;;;24.91;95.03
46846;BME280;33947;46.804;134.252;2022-08-05T10:44:19;99416.13;;;24.94;95.16
46846;BME280;33947;46.804;134.252;2022-08-05T10:47:31;99410.31;;;24.81;95.51
46846;BME280;33947;46.804;134.252;2022-08-05T10:55:05;99304.84;;;24.07;95.72
46846;BME280;33947;46.804;134.252;2022-08-05T10:58:10;99409.69;;;24.69;96.23
46846;BME280;33947;46.804;134.252;2022-08-05T11:01:41;99416.81;;;24.70;95.59
46846;BME280;33947;46.804;134.252;2022-08-05T11:05:08;99421.41;;;24.69;95.79
46846;BME280;33947;46.804;134.252;2022-08-05T11:08:15;99409.59;;;24.52;96.53
46846;BME280;33947;46.804;134.252;2022-08-05T11:11:39;99423.91;;;24.36;98.06
46846;BME280;33947;46.804;134.252;2022-08-05T11:15:07;99413.06;;;24.36;98.16
46846;BME280;33947;46.804;134.252;2022-08-05T11:18:26;99419.59;;;24.25;99.30
46846;BME280;33947;46.804;134.252;2022-08-05T11:21:34;99411.06;;;24.20;99.87
46846;BME280;33947;46.804;134.252;2022-08-05T11:28:54;99412.72;;;24.13;100.00
46846;BME280;33947;46.804;134.252;2022-08-05T11:32:21;99400.84;;;23.96;100.00
46846;BME280;33947;46.804;134.252;2022-08-05T11:39:11;99401.25;;;24.01;100.00
46846;BME280;33947;46.804;134.252;2022-08-05T11:42:22;99370.09;;;23.87;100.00
46846;BME280;33947;46.804;134.252;2022-08-05T11:45:30;99380.00;;;23.96;100.00
46846;BME280;33947;46.804;134.252;2022-08-05T11:48:55;99394.75;;;23.76;100.00
46846;BME280;33947;46.804;134.252;2022-08-05T11:52:01;99397.66;;;23.82;100.00
46846;BME280;33947;46.804;134.252;2022-08-05T11:55:13;99386.38;;;23.87;100.00
46846;BME280;33947;46.804;134.252;2022-08-05T11:58:41;99363.22;;;23.75;100.00
46846;BME280;33947;46.804;134.252;2022-08-05T12:02:03;99320.75;;;23.47;100.00
46846;BME280;33947;46.804;134.252;2022-08-05T12:05:27;99353.91;;;23.59;100.00
46846;BME280;33947;46.804;134.252;2022-08-05T12:08:45;99383.72;;;23.77;100.00
46846;BME280;33947;46.804;134.252;2022-08-05T12:11:53;99382.25;;;23.83;100.00
46846;BME280;33947;46.804;134.252;2022-08-05T12:14:58;99392.94;;;23.84;100.00
46846;BME280;33947;46.804;134.252;2022-08-05T12:18:05;99378.16;;;23.79;100.00
46846;BME280;33947;46.804;134.252;2022-08-05T12:21:18;99376.47;;;23.78;100.00
46846;BME280;33947;46.804;134.252;2022-08-05T12:24:25;99361.03;;;23.60;100.00
46846;BME280;33947;46.804;134.252;2022-08-05T12:27:32;99394.13;;;23.82;100.00
46846;BME280;33947;46.804;134.252;2022-08-05T12:30:56;99393.41;;;23.80;100.00
46846;BME280;33947;46.804;134.252;2022-08-05T12:34:06;99385.22;;;23.72;100.00
46846;BME280;33947;46.804;134.252;2022-08-05T12:37:23;99364.44;;;23.62;100.00
46846;BME280;33947;46.804;134.252;2022-08-05T12:40:32;99379.88;;;23.80;100.00
46846;BME280;33947;46.804;134.252;2022-08-05T12:44:09;99361.03;;;23.60;100.00
46846;BME280;33947;46.804;134.252;2022-08-05T12:47:31;99354.78;;;23.60;100.00
46846;BME280;33947;46.804;134.252;2022-08-05T12:50:36;99346.16;;;23.64;100.00
46846;BME280;33947;46.804;134.252;2022-08-05T12:53:43;99359.00;;;23.62;100.00
46846;BME280;33947;46.804;134.252;2022-08-05T12:57:02;99348.50;;;23.59;100.00
46846;BME280;33947;46.804;134.252;2022-08-05T13:00:22;99340.34;;;23.59;100.00
46846;BME280;33947;46.804;134.252;2022-08-05T13:03:47;99355.16;;;23.47;100.00
46846;BME280;33947;46.804;134.252;2022-08-05T13:06:55;99357.78;;;23.38;100.00
46846;BME280;33947;46.804;134.252;2022-08-05T13:10:02;99349.88;;;23.45;100.00
46846;BME280;33947;46.804;134.252;2022-08-05T13:13:18;99344.94;;;23.40;100.00
46846;BME280;33947;46.804;134.252;2022-08-05T13:16:53;99332.47;;;23.48;100.00
46846;BME280;33947;46.804;134.252;2022-08-05T13:20:11;99344.78;;;23.60;100.00
46846;BME280;33947;46.804;134.252;2022-08-05T13:23:23;99337.75;;;23.49;100.00
46846;BME280;33947;46.804;134.252;2022-08-05T13:26:29;99351.75;;;23.63;100.00
46846;BME280;33947;46.804;134.252;2022-08-05T13:29:33;99346.78;;;23.58;100.00
46846;BME280;33947;46.804;134.252;2022-08-05T13:32:40;99353.06;;;23.59;100.00
46846;BME280;33947;46.804;134.252;2022-08-05T13:35:53;99363.28;;;23.83;100.00
46846;BME280;33947;46.804;134.252;2022-08-05T13:39:05;99365.34;;;23.89;100.00
46846;BME280;33947;46.804;134.252;2022-08-05T13:42:30;99357.91;;;23.91;100.00
46846;BME280;33947;46.804;134.252;2022-08-05T13:45:34;99378.84;;;23.81;100.00
46846;BME280;33947;46.804;134.252;2022-08-05T13:48:45;99374.06;;;23.75;100.00
46846;BME280;33947;46.804;134.252;2022-08-05T13:52:14;99389.69;;;23.99;100.00
46846;BME280;33947;46.804;134.252;2022-08-05T13:55:19;99379.63;;;23.91;100.00
46846;BME280;33947;46.804;134.252;2022-08-05T13:58:43;99377.22;;;24.06;99.60
46846;BME280;33947;46.804;134.252;2022-08-05T14:01:57;99382.19;;;24.11;99.58
46846;BME280;33947;46.804;134.252;2022-08-05T14:05:03;99371.94;;;24.05;100.00
46846;BME280;33947;46.804;134.252;2022-08-05T14:08:17;99356.47;;;23.79;100.00
46846;BME280;33947;46.804;134.252;2022-08-05T14:11:30;99392.13;;;24.02;100.00
46846;BME280;33947;46.804;134.252;2022-08-05T14:14:55;99349.03;;;23.81;100.00
46846;BME280;33947;46.804;134.252;2022-08-05T14:18:01;99384.59;;;24.14;99.75
46846;BME280;33947;46.804;134.252;2022-08-05T14:21:06;99387.06;;;23.89;100.00
46846;BME280;33947;46.804;134.252;2022-08-05T14:24:31;99384.34;;;23.89;100.00
46846;BME280;33947;46.804;134.252;2022-08-05T14:27:37;99376.28;;;23.79;100.00
46846;BME280;33947;46.804;134.252;2022-08-05T14:30:49;99381.94;;;23.86;100.00
46846;BME280;33947;46.804;134.252;2022-08-05T14:33:55;99379.94;;;23.88;100.00
46846;BME280;33947;46.804;134.252;2022-08-05T14:37:03;99409.06;;;23.86;99.53
46846;BME280;33947;46.804;134.252;2022-08-05T14:40:09;99399.78;;;23.89;99.56
46846;BME280;33947;46.804;134.252;2022-08-05T14:43:19;99394.38;;;23.70;98.81
46846;BME280;33947;46.804;134.252;2022-08-05T14:46:43;99369.47;;;23.39;97.82
46846;BME280;33947;46.804;134.252;2022-08-05T14:49:48;99358.19;;;23.16;95.86
46846;BME280;33947;46.804;134.252;2022-08-05T14:53:01;99363.06;;;23.12;97.87
46846;BME280;33947;46.804;134.252;2022-08-05T14:56:08;99339.44;;;23.32;95.97
46846;BME280;33947;46.804;134.252;2022-08-05T14:59:14;99330.47;;;23.22;97.18
46846;BME280;33947;46.804;134.252;2022-08-05T15:02:18;99294.34;;;23.13;96.03
46846;BME280;33947;46.804;134.252;2022-08-05T15:05:23;99303.50;;;22.84;97.14
46846;BME280;33947;46.804;134.252;2022-08-05T15:08:32;99340.94;;;22.61;98.56
46846;BME280;33947;46.804;134.252;2022-08-05T15:11:56;99344.84;;;22.38;100.00
46846;BME280;33947;46.804;134.252;2022-08-05T15:15:06;99371.91;;;22.38;100.00
46846;BME280;33947;46.804;134.252;2022-08-05T15:18:17;99360.22;;;22.38;100.00
46846;BME280;33947;46.804;134.252;2022-08-05T15:21:22;99356.72;;;22.08;99.43
46846;BME280;33947;46.804;134.252;2022-08-05T15:24:32;99335.97;;;21.98;100.00
46846;BME280;33947;46.804;134.252;2022-08-05T15:27:41;99358.13;;;22.22;100.00
46846;BME280;33947;46.804;134.252;2022-08-05T15:30:56;99334.38;;;22.06;99.65
46846;BME280;33947;46.804;134.252;2022-08-05T15:34:05;99360.31;;;21.98;100.00
46846;BME280;33947;46.804;134.252;2022-08-05T15:37:30;99373.41;;;21.93;100.00
46846;BME280;33947;46.804;134.252;2022-08-05T15:40:54;99401.84;;;22.07;99.41
46846;BME280;33947;46.804;134.252;2022-08-05T15:44:18;99396.16;;;22.01;99.38
46846;BME280;33947;46.804;134.252;2022-08-05T15:47:23;99409.38;;;22.04;98.84
46846;BME280;33947;46.804;134.252;2022-08-05T15:50:29;99403.16;;;21.93;99.53
46846;BME280;33947;46.804;134.252;2022-08-05T15:53:34;99403.97;;;21.94;99.79
46846;BME280;33947;46.804;134.252;2022-08-05T15:56:53;99409.41;;;21.84;100.00
46846;BME280;33947;46.804;134.252;2022-08-05T15:59:58;99413.13;;;21.83;100.00
46846;BME280;33947;46.804;134.252;2022-08-05T16:03:06;99433.31;;;21.79;100.00
46846;BME280;33947;46.804;134.252;2022-08-05T16:06:11;99452.94;;;21.71;100.00
46846;BME280;33947;46.804;134.252;2022-08-05T16:09:22;99428.63;;;21.81;100.00
46846;BME280;33947;46.804;134.252;2022-08-05T16:12:27;99411.25;;;21.74;100.00
46846;BME280;33947;46.804;134.252;2022-08-05T16:15:33;99411.53;;;21.71;100.00
46846;BME280;33947;46.804;134.252;2022-08-05T16:18:37;99401.16;;;21.66;100.00
46846;BME280;33947;46.804;134.252;2022-08-05T16:21:55;99402.16;;;21.65;100.00
46846;BME280;33947;46.804;134.252;2022-08-05T16:25:03;99395.53;;;21.58;100.00
46846;BME280;33947;46.804;134.252;2022-08-05T16:28:12;99382.78;;;21.60;100.00
46846;BME280;33947;46.804;134.252;2022-08-05T16:31:17;99395.28;;;21.51;100.00
46846;BME280;33947;46.804;134.252;2022-08-05T16:34:23;99411.97;;;21.66;100.00
46846;BME280;33947;46.804;134.252;2022-08-05T16:37:28;99411.25;;;21.64;100.00
46846;BME280;33947;46.804;134.252;2022-08-05T16:40:55;99414.66;;;21.66;100.00
46846;BME280;33947;46.804;134.252;2022-08-05T16:44:10;99410.22;;;21.55;100.00
46846;BME280;33947;46.804;134.252;2022-08-05T16:47:15;99409.09;;;21.67;100.00
46846;BME280;33947;46.804;134.252;2022-08-05T16:50:38;99409.09;;;21.67;100.00
46846;BME280;33947;46.804;134.252;2022-08-05T16:53:43;99404.41;;;21.60;100.00
46846;BME280;33947;46.804;134.252;2022-08-05T16:57:08;99360.00;;;21.33;100.00